createdAt,value
2019-02-11T00:00:37.157Z,99304.35
2019-02-11T00:05:48.259Z,99321.07
2019-02-11T00:10:54.239Z,99337.84
2019-02-11T00:16:00.671Z,99355.00
2019-02-11T00:21:08.752Z,99363.20
2019-02-11T00:26:12.156Z,99379.91
2019-02-11T00:31:24.571Z,99399.28
2019-02-11T00:36:35.490Z,99417.28
2019-02-11T00:41:42.327Z,99433.59
2019-02-11T00:46:47.631Z,99448.20
2019-02-11T00:51:51.078Z,99462.40
2019-02-11T00:56:54.704Z,99480.02
2019-02-11T01:01:59.977Z,99492.52
2019-02-11T01:07:08.533Z,99502.83
2019-02-11T01:12:12.416Z,99522.59
2019-02-11T01:17:15.986Z,99534.61
2019-02-11T01:22:21.043Z,99552.72
2019-02-11T01:27:24.588Z,99553.97
2019-02-11T01:32:32.692Z,99567.26
2019-02-11T01:37:36.171Z,99578.84
2019-02-11T01:42:39.661Z,99590.46
2019-02-11T01:47:43.067Z,99599.05
2019-02-11T01:52:46.502Z,99612.36
2019-02-11T01:57:49.935Z,99621.80
2019-02-11T02:02:53.353Z,99631.24
2019-02-11T02:07:56.772Z,99641.14
2019-02-11T02:13:00.204Z,99651.02
2019-02-11T02:18:03.635Z,99659.16
2019-02-11T02:23:07.137Z,99670.81
2019-02-11T02:28:10.562Z,99673.78
2019-02-11T02:33:13.994Z,99679.82
2019-02-11T02:38:17.527Z,99691.06
2019-02-11T02:43:21.063Z,99698.78
2019-02-11T02:48:24.497Z,99699.22
2019-02-11T02:53:27.918Z,99706.97
2019-02-11T02:58:31.416Z,99713.43
2019-02-11T03:03:34.844Z,99712.12
2019-02-11T03:08:38.366Z,99727.17
2019-02-11T03:13:41.782Z,99740.97
2019-02-11T03:18:45.241Z,99743.97
2019-02-11T03:23:48.654Z,99757.31
2019-02-11T03:28:52.064Z,99762.50
2019-02-11T03:33:55.593Z,99771.56
2019-02-11T03:38:59.090Z,99787.48
2019-02-11T03:44:02.580Z,99794.36
2019-02-11T03:49:06.098Z,99815.47
2019-02-11T03:54:09.505Z,99823.65
2019-02-11T03:59:13.022Z,99825.37
2019-02-11T04:04:16.452Z,99837.88
2019-02-11T04:09:20.948Z,99855.09
2019-02-11T04:14:25.273Z,99862.42
2019-02-11T04:19:28.731Z,99879.64
2019-02-11T04:24:32.171Z,99886.14
2019-02-11T04:29:37.247Z,99894.73
2019-02-11T04:34:40.690Z,99915.42
2019-02-11T04:39:44.123Z,99915.42
2019-02-11T04:44:47.530Z,99935.68
2019-02-11T04:49:51.091Z,99953.76
2019-02-11T04:54:54.521Z,99961.08
2019-02-11T04:59:57.977Z,99961.05
2019-02-11T05:05:01.397Z,99980.02
2019-02-11T05:10:10.299Z,99982.19
2019-02-11T05:15:13.784Z,100000.27
2019-02-11T05:20:17.272Z,100013.17
2019-02-11T05:25:20.706Z,100024.80
2019-02-11T05:30:24.133Z,100032.98
2019-02-11T05:35:27.620Z,100040.75
2019-02-11T05:40:31.063Z,100039.03
2019-02-11T05:45:34.552Z,100046.76
2019-02-11T05:50:37.973Z,100050.20
2019-02-11T05:55:41.515Z,100060.53
2019-02-11T06:00:44.952Z,100064.84
2019-02-11T06:05:48.371Z,100072.16
2019-02-11T06:10:51.813Z,100078.59
2019-02-11T06:15:55.244Z,100089.80
2019-02-11T06:20:58.863Z,100103.58
2019-02-11T06:26:02.360Z,100123.81
2019-02-11T06:31:05.929Z,100138.44
2019-02-11T06:36:12.256Z,100141.48
2019-02-11T06:41:14.525Z,100156.95
2019-02-11T06:46:17.956Z,100176.34
2019-02-11T06:51:21.462Z,100195.31
2019-02-11T06:56:24.910Z,100204.33
2019-02-11T07:01:28.323Z,100222.36
2019-02-11T07:06:31.755Z,100242.21
2019-02-11T07:11:35.214Z,100240.92
2019-02-11T07:16:38.642Z,100257.71
2019-02-11T07:21:42.107Z,100242.21
2019-02-11T07:26:45.705Z,100254.67
2019-02-11T07:31:49.143Z,100273.64
2019-02-11T07:36:52.592Z,100284.37
2019-02-11T07:42:15.740Z,100293.45
2019-02-11T07:47:19.412Z,100305.93
2019-02-11T07:52:26.998Z,100319.67
2019-02-11T07:57:28.540Z,100343.39
2019-02-11T08:02:32.133Z,100346.41
2019-02-11T08:07:35.586Z,100359.78
2019-02-11T08:12:39.003Z,100368.79
2019-02-11T08:17:42.445Z,100374.42
2019-02-11T08:22:45.886Z,100386.91
2019-02-11T08:27:49.317Z,100394.66
2019-02-11T08:32:52.783Z,100412.78
2019-02-11T08:37:56.227Z,100421.01
2019-02-11T08:42:59.658Z,100433.50
2019-02-11T08:48:03.092Z,100436.94
2019-02-11T08:53:06.605Z,100442.54
2019-02-11T08:58:10.138Z,100449.44
2019-02-11T09:03:14.033Z,100461.92
2019-02-11T09:08:17.474Z,100470.97
2019-02-11T09:13:21.003Z,100485.66
2019-02-11T09:18:24.418Z,100490.83
2019-02-11T09:23:27.864Z,100494.70
2019-02-11T09:28:31.270Z,100506.38
2019-02-11T09:33:34.923Z,100513.36
2019-02-11T09:38:38.447Z,100529.89
2019-02-11T09:43:44.167Z,100532.98
2019-02-11T09:48:47.614Z,100536.47
2019-02-11T09:53:52.029Z,100548.94
2019-02-11T09:58:55.498Z,100574.80
2019-02-11T10:04:01.256Z,100592.91
2019-02-11T10:09:05.648Z,100586.52
2019-02-11T10:14:09.089Z,100602.12
2019-02-11T10:19:12.573Z,100618.66
2019-02-11T10:24:16.085Z,100619.30
2019-02-11T10:29:19.849Z,100636.17
2019-02-11T10:34:23.271Z,100651.81
2019-02-11T10:39:26.718Z,100657.91
2019-02-11T10:44:30.245Z,100664.39
2019-02-11T10:49:33.708Z,100681.66
2019-02-11T10:54:37.148Z,100685.09
2019-02-11T10:59:40.754Z,100695.02
2019-02-11T11:04:44.192Z,100697.16
2019-02-11T11:09:47.807Z,100708.50
2019-02-11T11:14:51.213Z,100712.41
2019-02-11T11:19:54.643Z,100704.64
2019-02-11T11:24:58.113Z,100708.54
2019-02-11T11:30:02.313Z,100711.50
2019-02-11T11:35:08.450Z,100719.73
2019-02-11T11:40:20.377Z,100723.19
2019-02-11T11:45:23.811Z,100743.95
2019-02-11T11:50:27.235Z,100770.88
2019-02-11T11:55:31.716Z,100788.17
2019-02-11T12:00:35.436Z,100785.52
2019-02-11T12:05:38.839Z,100796.31
2019-02-11T12:10:42.302Z,100807.37
2019-02-11T12:15:45.749Z,100822.12
2019-02-11T12:20:49.189Z,100832.59
2019-02-11T12:25:52.632Z,100839.96
2019-02-11T12:30:56.092Z,100863.77
2019-02-11T12:35:59.516Z,100862.47
2019-02-11T12:41:02.962Z,100878.11
2019-02-11T12:46:06.397Z,100882.53
2019-02-11T12:51:09.817Z,100897.73
2019-02-11T12:56:13.247Z,100900.30
2019-02-11T13:01:16.665Z,100911.59
2019-02-11T13:06:20.105Z,100928.05
2019-02-11T13:11:23.594Z,100935.42
2019-02-11T13:16:27.054Z,100955.33
2019-02-11T13:21:30.535Z,100976.82
2019-02-11T13:26:34.308Z,100985.39
2019-02-11T13:31:37.776Z,100987.13
2019-02-11T13:36:41.205Z,100986.84
2019-02-11T13:41:44.687Z,100998.10
2019-02-11T13:46:48.378Z,101006.39
2019-02-11T13:51:52.218Z,101017.63
2019-02-11T13:56:56.427Z,101033.63
2019-02-11T14:01:59.959Z,101049.06
2019-02-11T14:07:04.147Z,101059.54
2019-02-11T14:12:07.912Z,101070.69
2019-02-11T14:17:11.589Z,101089.19
2019-02-11T14:22:15.060Z,101101.25
2019-02-11T14:27:18.613Z,101109.91
2019-02-11T14:32:22.106Z,101118.93
2019-02-11T14:37:26.274Z,101123.16
2019-02-11T14:42:30.168Z,101128.69
2019-02-11T14:47:33.641Z,101139.16
2019-02-11T14:52:37.181Z,101147.27
2019-02-11T14:57:40.912Z,101155.43
2019-02-11T15:02:44.712Z,101172.27
2019-02-11T15:07:48.511Z,101181.97
2019-02-11T15:12:51.968Z,101195.93
2019-02-11T15:17:55.764Z,101202.41
2019-02-11T15:22:59.196Z,101203.97
2019-02-11T15:28:02.632Z,101217.26
2019-02-11T15:33:06.074Z,101229.34
2019-02-11T15:38:10.468Z,101244.84
2019-02-11T15:43:13.883Z,101256.22
2019-02-11T15:48:17.306Z,101267.58
2019-02-11T15:53:20.717Z,101299.80
2019-02-11T15:58:24.205Z,101304.96
2019-02-11T16:03:27.592Z,101315.58
2019-02-11T16:08:31.074Z,101335.82
2019-02-11T16:13:34.534Z,101360.77
2019-02-11T16:18:37.955Z,101377.93
2019-02-11T16:23:41.375Z,101394.48
2019-02-11T16:28:44.810Z,101415.44
2019-02-11T16:33:48.239Z,101445.36
2019-02-11T16:38:51.690Z,101458.95
2019-02-11T16:43:55.106Z,101474.77
2019-02-11T16:49:00.625Z,101476.72
2019-02-11T16:54:05.567Z,101492.08
2019-02-11T16:59:09.189Z,101494.09
2019-02-11T17:04:12.609Z,101509.95
2019-02-11T17:09:16.136Z,101533.52
2019-02-11T17:14:19.548Z,101543.30
2019-02-11T17:19:22.992Z,101559.25
2019-02-11T17:24:26.469Z,101587.25
2019-02-11T17:29:29.894Z,101602.65
2019-02-11T17:34:33.325Z,101628.45
2019-02-11T17:39:36.758Z,101636.75
2019-02-11T17:44:40.296Z,101645.75
2019-02-11T17:49:43.725Z,101656.25
2019-02-11T17:54:47.179Z,101665.95
2019-02-11T17:59:50.610Z,101670.68
2019-02-11T18:04:54.205Z,101672.39
2019-02-11T18:09:57.631Z,101669.91
2019-02-11T18:15:01.076Z,101687.05
2019-02-11T18:20:06.361Z,101678.90
2019-02-11T18:25:10.539Z,101701.13
2019-02-11T18:30:17.542Z,101701.59
2019-02-11T18:35:22.486Z,101705.37
2019-02-11T18:40:26.037Z,101711.70
2019-02-11T18:45:29.615Z,101716.48
2019-02-11T18:50:33.112Z,101717.19
2019-02-11T18:55:36.542Z,101725.30
2019-02-11T19:00:40.000Z,101734.34
2019-02-11T19:05:43.443Z,101739.80
2019-02-11T19:10:46.881Z,101745.66
2019-02-11T19:15:50.400Z,101754.56
2019-02-11T19:20:53.831Z,101771.56
2019-02-11T19:25:57.265Z,101771.84
2019-02-11T19:31:00.770Z,101777.84
2019-02-11T19:36:04.341Z,101778.88
2019-02-11T19:41:07.980Z,101781.46
2019-02-11T19:46:11.475Z,101777.71
2019-02-11T19:51:14.891Z,101785.61
2019-02-11T19:56:18.433Z,101795.06
2019-02-11T20:01:21.902Z,101802.02
2019-02-11T20:06:26.055Z,101807.72
2019-02-11T20:11:29.657Z,101796.85
2019-02-11T20:16:33.072Z,101795.56
2019-02-11T20:21:36.504Z,101807.45
2019-02-11T20:26:39.960Z,101800.73
2019-02-11T20:31:43.462Z,101793.25
2019-02-11T20:36:46.873Z,101817.63
2019-02-11T20:41:50.280Z,101838.19
2019-02-11T20:46:53.716Z,101849.55
2019-02-11T20:51:57.145Z,101865.34
2019-02-11T20:57:00.651Z,101877.39
2019-02-11T21:02:04.270Z,101889.96
2019-02-11T21:07:07.818Z,101897.14
2019-02-11T21:12:11.256Z,101911.92
2019-02-11T21:17:14.786Z,101918.50
2019-02-11T21:22:18.184Z,101928.23
2019-02-11T21:27:21.807Z,101927.44
2019-02-11T21:32:25.254Z,101939.25
2019-02-11T21:37:28.829Z,101943.86
2019-02-11T21:42:32.405Z,101946.36
2019-02-11T21:47:36.247Z,101942.83
2019-02-11T21:52:40.229Z,101948.00
2019-02-11T21:57:43.638Z,101947.54
2019-02-11T22:02:47.086Z,101944.50
2019-02-11T22:07:50.505Z,101944.08
2019-02-11T22:12:54.005Z,101959.50
2019-02-11T22:17:57.419Z,101967.70
2019-02-11T22:23:00.927Z,101965.88
2019-02-11T22:28:04.351Z,101976.33
2019-02-11T22:33:07.884Z,101976.13
2019-02-11T22:38:11.342Z,101980.97
2019-02-11T22:43:14.838Z,101992.97
2019-02-11T22:48:18.270Z,101985.93
2019-02-11T22:53:21.683Z,101993.80
2019-02-11T22:58:25.089Z,101997.55
2019-02-11T23:03:29.039Z,102009.50
2019-02-11T23:08:32.478Z,102010.63
2019-02-11T23:13:35.918Z,102007.58
2019-02-11T23:18:39.330Z,102005.78
2019-02-11T23:23:43.129Z,102003.71
2019-02-11T23:28:46.536Z,102005.98
2019-02-11T23:33:49.960Z,102012.61
2019-02-11T23:38:53.389Z,102028.69
2019-02-11T23:43:56.811Z,102034.31
2019-02-11T23:49:00.256Z,102045.79
2019-02-11T23:54:03.699Z,102060.79
2019-02-11T23:59:07.135Z,102069.48
